Menan, Idaho
Current Conditions -  °F | °C
As of 3:53 AM on Thursday 23 Oct 2014 (Local Time) from KRXE Reporting Station
Overcast Overcast  
Wind Chill: 33°   Ceiling: 10000
Heat Index: 37°   Visibility: 10mi
Dew Point: 31°   Wind: 5mph
Humidity: 79%   Direction: 350°N
Pressure: 30.15"   Gusts: NA
Location:  43.72°N, 111.99°W
Report Text: KRXE 230953Z AUTO 35004KT 10SM FEW080 OVC100 03/M01 A3015 RMK AO2 SLP206 T00281006
Loading
Personal Weather Stations






























Interactive Weather Map
Tropical Storm Tracking
New forecast layout! Learn more

10-Day Weather Forecast

Advertisements
Track Severe Weather on mobile